sensor_id;sensor_type;location;lat;lon;timestamp;pressure;altitude;pressure_sealevel;temperature;humidity
55456;BME280;63021;52.836;6.376;2023-05-16T00:02:24;101917.69;;;8.87;69.25
55456;BME280;63021;52.836;6.376;2023-05-16T00:04:50;101937.13;;;8.87;69.15
55456;BME280;63021;52.836;6.376;2023-05-16T00:07:16;101933.63;;;8.87;69.12
55456;BME280;63021;52.836;6.376;2023-05-16T00:09:41;101923.13;;;8.85;69.11
55456;BME280;63021;52.836;6.376;2023-05-16T00:12:07;101924.06;;;8.84;69.37
55456;BME280;63021;52.836;6.376;2023-05-16T00:14:32;101931.94;;;8.86;68.73
55456;BME280;63021;52.836;6.376;2023-05-16T00:16:59;101922.25;;;8.84;69.20
55456;BME280;63021;52.836;6.376;2023-05-16T00:19:25;101927.69;;;8.83;68.85
55456;BME280;63021;52.836;6.376;2023-05-16T00:21:51;101933.31;;;8.78;69.25
55456;BME280;63021;52.836;6.376;2023-05-16T00:24:17;101939.34;;;8.80;69.19
55456;BME280;63021;52.836;6.376;2023-05-16T00:26:42;101940.53;;;8.76;68.89
55456;BME280;63021;52.836;6.376;2023-05-16T00:29:08;101953.19;;;8.73;69.13
55456;BME280;63021;52.836;6.376;2023-05-16T00:31:33;101933.75;;;8.72;69.41
55456;BME280;63021;52.836;6.376;2023-05-16T00:33:59;101931.28;;;8.69;68.87
55456;BME280;63021;52.836;6.376;2023-05-16T00:36:24;101952.53;;;8.69;69.08
55456;BME280;63021;52.836;6.376;2023-05-16T00:38:50;101926.97;;;8.68;68.75
55456;BME280;63021;52.836;6.376;2023-05-16T00:41:16;101933.22;;;8.67;68.76
55456;BME280;63021;52.836;6.376;2023-05-16T00:43:41;101927.06;;;8.66;68.98
55456;BME280;63021;52.836;6.376;2023-05-16T00:46:07;101927.47;;;8.60;69.44
55456;BME280;63021;52.836;6.376;2023-05-16T00:48:32;101935.44;;;8.60;69.22
55456;BME280;63021;52.836;6.376;2023-05-16T00:50:58;101937.47;;;8.57;69.17
55456;BME280;63021;52.836;6.376;2023-05-16T00:53:24;101941.97;;;8.56;68.97
55456;BME280;63021;52.836;6.376;2023-05-16T00:55:51;101944.91;;;8.52;68.93
55456;BME280;63021;52.836;6.376;2023-05-16T00:58:17;101923.06;;;8.48;69.29
55456;BME280;63021;52.836;6.376;2023-05-16T01:00:43;101947.88;;;8.47;68.92
55456;BME280;63021;52.836;6.376;2023-05-16T01:03:10;101937.44;;;8.44;68.92
55456;BME280;63021;52.836;6.376;2023-05-16T01:05:36;101926.06;;;8.42;68.97
55456;BME280;63021;52.836;6.376;2023-05-16T01:08:01;101929.81;;;8.39;68.78
55456;BME280;63021;52.836;6.376;2023-05-16T01:10:34;101932.56;;;8.38;69.59
55456;BME280;63021;52.836;6.376;2023-05-16T01:13:11;101937.34;;;8.32;69.03
55456;BME280;63021;52.836;6.376;2023-05-16T01:15:46;101934.91;;;8.29;69.23
55456;BME280;63021;52.836;6.376;2023-05-16T01:20:48;101931.81;;;8.23;68.84
55456;BME280;63021;52.836;6.376;2023-05-16T01:26:14;101946.66;;;8.12;69.23
55456;BME280;63021;52.836;6.376;2023-05-16T01:28:40;101933.72;;;8.08;68.88
55456;BME280;63021;52.836;6.376;2023-05-16T01:31:09;101935.72;;;8.04;69.37
55456;BME280;63021;52.836;6.376;2023-05-16T01:33:34;101943.88;;;8.01;69.45
55456;BME280;63021;52.836;6.376;2023-05-16T01:36:02;101940.38;;;8.01;69.72
55456;BME280;63021;52.836;6.376;2023-05-16T01:38:38;101956.41;;;7.99;69.14
55456;BME280;63021;52.836;6.376;2023-05-16T01:41:17;101952.03;;;7.98;68.89
55456;BME280;63021;52.836;6.376;2023-05-16T01:43:48;101954.91;;;7.95;69.66
55456;BME280;63021;52.836;6.376;2023-05-16T01:46:20;101949.69;;;7.93;69.21
55456;BME280;63021;52.836;6.376;2023-05-16T01:49:09;101950.75;;;7.91;69.58
55456;BME280;63021;52.836;6.376;2023-05-16T01:51:56;101949.25;;;7.87;69.79
55456;BME280;63021;52.836;6.376;2023-05-16T01:54:24;101945.88;;;7.85;69.51
55456;BME280;63021;52.836;6.376;2023-05-16T01:56:52;101964.53;;;7.83;69.14
55456;BME280;63021;52.836;6.376;2023-05-16T01:59:23;101947.03;;;7.80;69.32
55456;BME280;63021;52.836;6.376;2023-05-16T02:01:52;101950.72;;;7.78;69.00
55456;BME280;63021;52.836;6.376;2023-05-16T02:04:17;101950.72;;;7.78;69.19
55456;BME280;63021;52.836;6.376;2023-05-16T02:06:43;101950.91;;;7.75;69.36
55456;BME280;63021;52.836;6.376;2023-05-16T02:09:09;101951.13;;;7.72;69.96
55456;BME280;63021;52.836;6.376;2023-05-16T02:11:34;101944.97;;;7.71;69.62
55456;BME280;63021;52.836;6.376;2023-05-16T02:13:59;101945.81;;;7.72;69.50
55456;BME280;63021;52.836;6.376;2023-05-16T02:16:25;101947.59;;;7.71;70.11
55456;BME280;63021;52.836;6.376;2023-05-16T02:18:50;101946.88;;;7.69;69.58
55456;BME280;63021;52.836;6.376;2023-05-16T02:21:16;101938.81;;;7.71;69.39
55456;BME280;63021;52.836;6.376;2023-05-16T02:23:41;101953.97;;;7.69;69.47
55456;BME280;63021;52.836;6.376;2023-05-16T02:26:07;101951.22;;;7.70;69.37
55456;BME280;63021;52.836;6.376;2023-05-16T02:28:32;101944.22;;;7.69;69.69
55456;BME280;63021;52.836;6.376;2023-05-16T02:31:01;101952.19;;;7.69;69.71
55456;BME280;63021;52.836;6.376;2023-05-16T02:33:27;101966.38;;;7.68;69.66
55456;BME280;63021;52.836;6.376;2023-05-16T02:35:53;101944.31;;;7.68;69.49
55456;BME280;63021;52.836;6.376;2023-05-16T02:38:19;101944.31;;;7.68;69.55
55456;BME280;63021;52.836;6.376;2023-05-16T02:40:48;101951.50;;;7.66;69.43
55456;BME280;63021;52.836;6.376;2023-05-16T02:43:14;101951.72;;;7.62;69.91
55456;BME280;63021;52.836;6.376;2023-05-16T02:45:40;101954.25;;;7.64;69.50
55456;BME280;63021;52.836;6.376;2023-05-16T02:48:06;101955.34;;;7.61;69.69
55456;BME280;63021;52.836;6.376;2023-05-16T02:50:32;101941.31;;;7.59;70.06
55456;BME280;63021;52.836;6.376;2023-05-16T02:52:57;101948.44;;;7.59;69.94
55456;BME280;63021;52.836;6.376;2023-05-16T02:55:25;101947.78;;;7.55;69.70
55456;BME280;63021;52.836;6.376;2023-05-16T02:57:50;101958.47;;;7.54;70.16
55456;BME280;63021;52.836;6.376;2023-05-16T03:00:16;101978.81;;;7.53;69.89
55456;BME280;63021;52.836;6.376;2023-05-16T03:02:42;101958.78;;;7.49;69.68
55456;BME280;63021;52.836;6.376;2023-05-16T03:05:08;101986.09;;;7.50;69.64
55456;BME280;63021;52.836;6.376;2023-05-16T03:07:34;101960.59;;;7.49;70.07
55456;BME280;63021;52.836;6.376;2023-05-16T03:10:00;101963.34;;;7.47;69.79
55456;BME280;63021;52.836;6.376;2023-05-16T03:12:25;101964.38;;;7.44;69.94
55456;BME280;63021;52.836;6.376;2023-05-16T03:14:50;101966.16;;;7.44;70.20
55456;BME280;63021;52.836;6.376;2023-05-16T03:17:16;101973.28;;;7.43;70.30
55456;BME280;63021;52.836;6.376;2023-05-16T03:19:41;101971.56;;;7.42;70.21
55456;BME280;63021;52.836;6.376;2023-05-16T03:22:07;101977.81;;;7.41;70.04
55456;BME280;63021;52.836;6.376;2023-05-16T03:24:32;101979.72;;;7.39;70.33
55456;BME280;63021;52.836;6.376;2023-05-16T03:26:58;101968.38;;;7.37;70.04
55456;BME280;63021;52.836;6.376;2023-05-16T03:29:24;101978.97;;;7.37;70.34
55456;BME280;63021;52.836;6.376;2023-05-16T03:31:51;101986.16;;;7.35;70.03
55456;BME280;63021;52.836;6.376;2023-05-16T03:34:16;101996.75;;;7.35;70.45
55456;BME280;63021;52.836;6.376;2023-05-16T03:36:42;101977.47;;;7.33;70.40
55456;BME280;63021;52.836;6.376;2023-05-16T03:39:07;101982.75;;;7.33;70.91
55456;BME280;63021;52.836;6.376;2023-05-16T03:41:33;101992.59;;;7.31;70.66
55456;BME280;63021;52.836;6.376;2023-05-16T03:43:59;101995.31;;;7.29;70.49
55456;BME280;63021;52.836;6.376;2023-05-16T03:46:24;102002.53;;;7.27;70.32
55456;BME280;63021;52.836;6.376;2023-05-16T03:48:50;101986.66;;;7.27;70.80
55456;BME280;63021;52.836;6.376;2023-05-16T03:51:15;101990.22;;;7.26;70.36
55456;BME280;63021;52.836;6.376;2023-05-16T03:53:40;101994.78;;;7.24;70.56
55456;BME280;63021;52.836;6.376;2023-05-16T03:56:06;102000.09;;;7.24;70.71
55456;BME280;63021;52.836;6.376;2023-05-16T03:58:32;101996.03;;;7.19;70.88
55456;BME280;63021;52.836;6.376;2023-05-16T04:00:58;101995.25;;;7.17;71.01
55456;BME280;63021;52.836;6.376;2023-05-16T04:03:23;102006.81;;;7.16;71.00
55456;BME280;63021;52.836;6.376;2023-05-16T04:05:53;102005.09;;;7.15;71.38
55456;BME280;63021;52.836;6.376;2023-05-16T04:08:19;101999.72;;;7.16;71.32
55456;BME280;63021;52.836;6.376;2023-05-16T04:10:45;101997.91;;;7.17;70.70
55456;BME280;63021;52.836;6.376;2023-05-16T04:13:10;102018.25;;;7.16;71.02
55456;BME280;63021;52.836;6.376;2023-05-16T04:15:35;102013.88;;;7.15;71.10
55456;BME280;63021;52.836;6.376;2023-05-16T04:18:01;102012.13;;;7.16;71.09
55456;BME280;63021;52.836;6.376;2023-05-16T04:20:26;102011.25;;;7.15;71.05
55456;BME280;63021;52.836;6.376;2023-05-16T04:22:52;102010.31;;;7.16;71.24
55456;BME280;63021;52.836;6.376;2023-05-16T04:25:17;102012.75;;;7.19;70.89
55456;BME280;63021;52.836;6.376;2023-05-16T04:27:43;102016.34;;;7.18;71.10
55456;BME280;63021;52.836;6.376;2023-05-16T04:30:08;102025.34;;;7.16;70.88
55456;BME280;63021;52.836;6.376;2023-05-16T04:32:35;102016.44;;;7.17;70.66
55456;BME280;63021;52.836;6.376;2023-05-16T04:35:01;102022.72;;;7.16;70.88
55456;BME280;63021;52.836;6.376;2023-05-16T04:37:26;102021.72;;;7.17;71.56
55456;BME280;63021;52.836;6.376;2023-05-16T04:39:52;102022.72;;;7.16;70.74
55456;BME280;63021;52.836;6.376;2023-05-16T04:42:18;102026.28;;;7.15;70.85
55456;BME280;63021;52.836;6.376;2023-05-16T04:44:44;102038.59;;;7.16;71.00
55456;BME280;63021;52.836;6.376;2023-05-16T04:47:12;102026.09;;;7.18;71.47
55456;BME280;63021;52.836;6.376;2023-05-16T04:49:37;102026.09;;;7.18;71.26
55456;BME280;63021;52.836;6.376;2023-05-16T04:52:03;102054.09;;;7.22;71.44
55456;BME280;63021;52.836;6.376;2023-05-16T04:54:28;102030.06;;;7.25;71.64
55456;BME280;63021;52.836;6.376;2023-05-16T04:56:54;102028.09;;;7.28;71.01
55456;BME280;63021;52.836;6.376;2023-05-16T04:59:19;102027.88;;;7.32;71.22
55456;BME280;63021;52.836;6.376;2023-05-16T05:01:45;102059.47;;;7.35;71.22
55456;BME280;63021;52.836;6.376;2023-05-16T05:04:14;102034.50;;;7.39;71.30
55456;BME280;63021;52.836;6.376;2023-05-16T05:06:41;102032.59;;;7.41;70.96
55456;BME280;63021;52.836;6.376;2023-05-16T05:09:08;102051.63;;;7.48;71.27
55456;BME280;63021;52.836;6.376;2023-05-16T05:11:34;102033.59;;;7.53;70.75
55456;BME280;63021;52.836;6.376;2023-05-16T05:13:59;102065.97;;;7.58;71.04
55456;BME280;63021;52.836;6.376;2023-05-16T05:16:25;102056.69;;;7.65;71.06
55456;BME280;63021;52.836;6.376;2023-05-16T05:18:50;102039.53;;;7.71;70.80
55456;BME280;63021;52.836;6.376;2023-05-16T05:21:16;102034.81;;;7.76;70.42
55456;BME280;63021;52.836;6.376;2023-05-16T05:23:42;102035.13;;;7.84;70.54
55456;BME280;63021;52.836;6.376;2023-05-16T05:26:07;102063.94;;;7.90;70.73
55456;BME280;63021;52.836;6.376;2023-05-16T05:28:33;102061.50;;;8.00;70.38
55456;BME280;63021;52.836;6.376;2023-05-16T05:30:58;102044.22;;;8.07;70.50
55456;BME280;63021;52.836;6.376;2023-05-16T05:33:27;102043.63;;;8.17;70.32
55456;BME280;63021;52.836;6.376;2023-05-16T05:35:55;102040.47;;;8.24;70.69
55456;BME280;63021;52.836;6.376;2023-05-16T05:38:20;102042.53;;;8.33;69.98
55456;BME280;63021;52.836;6.376;2023-05-16T05:40:46;102059.72;;;8.41;70.31
55456;BME280;63021;52.836;6.376;2023-05-16T05:43:12;102052.97;;;8.49;70.35
55456;BME280;63021;52.836;6.376;2023-05-16T05:45:37;102054.16;;;8.58;70.14
55456;BME280;63021;52.836;6.376;2023-05-16T05:48:02;102062.56;;;8.65;69.98
55456;BME280;63021;52.836;6.376;2023-05-16T05:50:28;102054.19;;;8.71;69.83
55456;BME280;63021;52.836;6.376;2023-05-16T05:52:54;102054.50;;;8.79;69.53
55456;BME280;63021;52.836;6.376;2023-05-16T05:55:19;102061.09;;;8.87;69.57
55456;BME280;63021;52.836;6.376;2023-05-16T05:57:45;102051.63;;;8.95;69.22
55456;BME280;63021;52.836;6.376;2023-05-16T06:00:11;102054.59;;;9.04;69.23
55456;BME280;63021;52.836;6.376;2023-05-16T06:02:36;102075.31;;;9.11;68.96
55456;BME280;63021;52.836;6.376;2023-05-16T06:05:02;102068.50;;;9.20;69.16
55456;BME280;63021;52.836;6.376;2023-05-16T06:07:27;102079.47;;;9.28;69.17
55456;BME280;63021;52.836;6.376;2023-05-16T06:09:53;102070.09;;;9.35;68.70
55456;BME280;63021;52.836;6.376;2023-05-16T06:12:18;102081.00;;;9.44;68.57
55456;BME280;63021;52.836;6.376;2023-05-16T06:14:43;102075.28;;;9.50;68.26
55456;BME280;63021;52.836;6.376;2023-05-16T06:17:09;102071.44;;;9.54;67.76
55456;BME280;63021;52.836;6.376;2023-05-16T06:19:34;102074.72;;;9.58;67.90
55456;BME280;63021;52.836;6.376;2023-05-16T06:21:59;102082.25;;;9.64;68.30
55456;BME280;63021;52.836;6.376;2023-05-16T06:24:25;102081.81;;;9.70;68.13
55456;BME280;63021;52.836;6.376;2023-05-16T06:26:50;102083.06;;;9.77;67.04
55456;BME280;63021;52.836;6.376;2023-05-16T06:29:16;102077.31;;;9.83;67.25
55456;BME280;63021;52.836;6.376;2023-05-16T06:31:42;102074.41;;;9.86;67.30
55456;BME280;63021;52.836;6.376;2023-05-16T06:34:07;102074.94;;;9.92;66.81
55456;BME280;63021;52.836;6.376;2023-05-16T06:36:33;102071.94;;;9.96;66.16
55456;BME280;63021;52.836;6.376;2023-05-16T06:38:58;102074.25;;;10.01;66.67
55456;BME280;63021;52.836;6.376;2023-05-16T06:41:24;102078.28;;;10.06;66.15
55456;BME280;63021;52.836;6.376;2023-05-16T06:43:50;102078.69;;;10.13;66.39
55456;BME280;63021;52.836;6.376;2023-05-16T06:46:16;102079.91;;;10.20;66.20
55456;BME280;63021;52.836;6.376;2023-05-16T06:48:41;102080.41;;;10.26;65.15
55456;BME280;63021;52.836;6.376;2023-05-16T06:51:07;102082.97;;;10.27;65.06
55456;BME280;63021;52.836;6.376;2023-05-16T06:53:32;102088.91;;;10.31;65.20
55456;BME280;63021;52.836;6.376;2023-05-16T06:55:58;102085.19;;;10.33;64.63
55456;BME280;63021;52.836;6.376;2023-05-16T06:58:23;102092.13;;;10.36;64.37
55456;BME280;63021;52.836;6.376;2023-05-16T07:00:49;102089.47;;;10.36;64.72
55456;BME280;63021;52.836;6.376;2023-05-16T07:03:14;102095.19;;;10.30;63.81
55456;BME280;63021;52.836;6.376;2023-05-16T07:05:40;102116.09;;;10.23;63.90
55456;BME280;63021;52.836;6.376;2023-05-16T07:08:08;102100.44;;;10.18;64.53
55456;BME280;63021;52.836;6.376;2023-05-16T07:10:34;102116.66;;;10.15;64.50
55456;BME280;63021;52.836;6.376;2023-05-16T07:13:00;102110.94;;;10.09;64.82
55456;BME280;63021;52.836;6.376;2023-05-16T07:15:26;102114.44;;;10.09;64.92
55456;BME280;63021;52.836;6.376;2023-05-16T07:17:51;102112.63;;;10.10;65.26
55456;BME280;63021;52.836;6.376;2023-05-16T07:20:17;102121.03;;;10.16;65.71
55456;BME280;63021;52.836;6.376;2023-05-16T07:22:42;102116.22;;;10.21;65.59
55456;BME280;63021;52.836;6.376;2023-05-16T07:25:08;102117.59;;;10.27;66.05
55456;BME280;63021;52.836;6.376;2023-05-16T07:27:38;102117.88;;;10.35;65.63
55456;BME280;63021;52.836;6.376;2023-05-16T07:30:09;102133.78;;;10.48;66.38
55456;BME280;63021;52.836;6.376;2023-05-16T07:32:35;102134.41;;;10.52;65.64
55456;BME280;63021;52.836;6.376;2023-05-16T07:35:00;102150.34;;;10.40;64.52
55456;BME280;63021;52.836;6.376;2023-05-16T07:37:26;102125.03;;;10.22;64.23
55456;BME280;63021;52.836;6.376;2023-05-16T07:39:51;102121.47;;;10.10;64.11
55456;BME280;63021;52.836;6.376;2023-05-16T07:42:16;102130.13;;;10.01;63.93
55456;BME280;63021;52.836;6.376;2023-05-16T07:44:42;102131.53;;;9.94;64.32
55456;BME280;63021;52.836;6.376;2023-05-16T07:47:07;102134.63;;;9.87;63.90
55456;BME280;63021;52.836;6.376;2023-05-16T07:49:32;102126.13;;;9.82;64.55
55456;BME280;63021;52.836;6.376;2023-05-16T07:51:58;102129.66;;;9.83;64.70
55456;BME280;63021;52.836;6.376;2023-05-16T07:54:23;102125.81;;;9.87;64.82
55456;BME280;63021;52.836;6.376;2023-05-16T07:56:49;102122.81;;;9.92;65.31
55456;BME280;63021;52.836;6.376;2023-05-16T07:59:15;102151.50;;;9.99;65.48
55456;BME280;63021;52.836;6.376;2023-05-16T08:01:40;102129.78;;;10.05;65.71
55456;BME280;63021;52.836;6.376;2023-05-16T08:04:05;102122.97;;;10.14;66.22
55456;BME280;63021;52.836;6.376;2023-05-16T08:06:31;102115.00;;;10.26;66.09
55456;BME280;63021;52.836;6.376;2023-05-16T08:08:56;102124.06;;;10.36;66.24
55456;BME280;63021;52.836;6.376;2023-05-16T08:11:22;102115.63;;;10.42;66.05
55456;BME280;63021;52.836;6.376;2023-05-16T08:13:48;102115.78;;;10.52;66.05
55456;BME280;63021;52.836;6.376;2023-05-16T08:16:14;102106.13;;;10.62;66.23
55456;BME280;63021;52.836;6.376;2023-05-16T08:18:39;102110.41;;;10.76;65.73
55456;BME280;63021;52.836;6.376;2023-05-16T08:21:05;102100.63;;;10.88;65.40
55456;BME280;63021;52.836;6.376;2023-05-16T08:23:30;102109.72;;;10.97;64.43
55456;BME280;63021;52.836;6.376;2023-05-16T08:25:55;102110.94;;;11.04;63.96
55456;BME280;63021;52.836;6.376;2023-05-16T08:28:21;102104.03;;;11.13;63.37
55456;BME280;63021;52.836;6.376;2023-05-16T08:30:46;102104.19;;;11.22;63.10
55456;BME280;63021;52.836;6.376;2023-05-16T08:33:12;102111.44;;;11.32;62.24
55456;BME280;63021;52.836;6.376;2023-05-16T08:35:42;102118.84;;;11.39;61.37
55456;BME280;63021;52.836;6.376;2023-05-16T08:38:08;102124.06;;;11.41;60.86
55456;BME280;63021;52.836;6.376;2023-05-16T08:40:33;102113.16;;;11.44;61.19
55456;BME280;63021;52.836;6.376;2023-05-16T08:42:59;102117.53;;;11.45;60.94
55456;BME280;63021;52.836;6.376;2023-05-16T08:45:25;102118.22;;;11.47;60.75
55456;BME280;63021;52.836;6.376;2023-05-16T08:47:53;102120.78;;;11.49;59.97
55456;BME280;63021;52.836;6.376;2023-05-16T08:50:18;102118.72;;;11.52;60.00
55456;BME280;63021;52.836;6.376;2023-05-16T08:52:46;102125.50;;;11.56;59.22
55456;BME280;63021;52.836;6.376;2023-05-16T08:55:14;102132.16;;;11.62;58.70
55456;BME280;63021;52.836;6.376;2023-05-16T08:57:40;102122.09;;;11.66;58.23
55456;BME280;63021;52.836;6.376;2023-05-16T09:00:06;102133.16;;;11.72;57.91
55456;BME280;63021;52.836;6.376;2023-05-16T09:02:38;102111.88;;;11.82;58.31
55456;BME280;63021;52.836;6.376;2023-05-16T09:05:04;102121.22;;;11.88;57.73
55456;BME280;63021;52.836;6.376;2023-05-16T09:07:32;102123.63;;;11.91;57.54
55456;BME280;63021;52.836;6.376;2023-05-16T09:09:58;102125.34;;;11.92;57.97
55456;BME280;63021;52.836;6.376;2023-05-16T09:12:23;102121.84;;;11.91;57.75
55456;BME280;63021;52.836;6.376;2023-05-16T09:14:48;102127.28;;;11.90;57.84
55456;BME280;63021;52.836;6.376;2023-05-16T09:17:14;102123.06;;;11.87;57.34
55456;BME280;63021;52.836;6.376;2023-05-16T09:19:42;102143.56;;;11.87;56.96
55456;BME280;63021;52.836;6.376;2023-05-16T09:22:12;102122.09;;;11.88;57.56
55456;BME280;63021;52.836;6.376;2023-05-16T09:24:47;102119.91;;;11.93;57.51
55456;BME280;63021;52.836;6.376;2023-05-16T09:27:14;102127.53;;;11.98;57.22
55456;BME280;63021;52.836;6.376;2023-05-16T09:29:41;102112.84;;;12.04;57.58
55456;BME280;63021;52.836;6.376;2023-05-16T09:32:13;102117.31;;;12.15;57.16
55456;BME280;63021;52.836;6.376;2023-05-16T09:34:42;102118.25;;;12.25;56.24
55456;BME280;63021;52.836;6.376;2023-05-16T09:37:10;102110.69;;;12.41;55.34
55456;BME280;63021;52.836;6.376;2023-05-16T09:39:36;102117.31;;;12.47;54.42
55456;BME280;63021;52.836;6.376;2023-05-16T09:42:01;102114.13;;;12.53;54.53
55456;BME280;63021;52.836;6.376;2023-05-16T09:44:27;102109.25;;;12.58;54.22
55456;BME280;63021;52.836;6.376;2023-05-16T09:46:53;102124.50;;;12.68;54.07
55456;BME280;63021;52.836;6.376;2023-05-16T09:49:19;102126.34;;;12.67;52.46
55456;BME280;63021;52.836;6.376;2023-05-16T09:51:45;102126.72;;;12.62;52.40
55456;BME280;63021;52.836;6.376;2023-05-16T09:54:10;102138.63;;;12.58;52.22
55456;BME280;63021;52.836;6.376;2023-05-16T09:56:49;102145.44;;;12.51;51.18
55456;BME280;63021;52.836;6.376;2023-05-16T09:59:14;102143.69;;;12.40;51.64
55456;BME280;63021;52.836;6.376;2023-05-16T10:01:41;102153.88;;;12.35;51.74
55456;BME280;63021;52.836;6.376;2023-05-16T10:04:07;102153.31;;;12.32;51.71
55456;BME280;63021;52.836;6.376;2023-05-16T10:06:38;102148.09;;;12.30;52.36
55456;BME280;63021;52.836;6.376;2023-05-16T10:09:05;102138.13;;;12.32;52.36
55456;BME280;63021;52.836;6.376;2023-05-16T10:11:31;102123.69;;;12.35;52.35
55456;BME280;63021;52.836;6.376;2023-05-16T10:13:57;102136.25;;;12.44;52.04
55456;BME280;63021;52.836;6.376;2023-05-16T10:16:22;102135.38;;;12.55;52.75
55456;BME280;63021;52.836;6.376;2023-05-16T10:18:49;102129.84;;;12.68;52.43
55456;BME280;63021;52.836;6.376;2023-05-16T10:21:16;102132.06;;;12.83;51.96
55456;BME280;63021;52.836;6.376;2023-05-16T10:23:43;102123.59;;;12.99;52.08
55456;BME280;63021;52.836;6.376;2023-05-16T10:26:13;102130.84;;;13.09;51.52
55456;BME280;63021;52.836;6.376;2023-05-16T10:28:40;102133.25;;;13.12;51.75
55456;BME280;63021;52.836;6.376;2023-05-16T10:31:07;102132.38;;;13.11;51.04
55456;BME280;63021;52.836;6.376;2023-05-16T10:33:34;102131.53;;;13.11;51.61
55456;BME280;63021;52.836;6.376;2023-05-16T10:36:00;102120.84;;;13.11;51.82
55456;BME280;63021;52.836;6.376;2023-05-16T10:38:28;102131.72;;;13.19;52.21
55456;BME280;63021;52.836;6.376;2023-05-16T10:40:54;102122.75;;;13.30;52.10
55456;BME280;63021;52.836;6.376;2023-05-16T10:43:29;102138.34;;;13.46;51.85
55456;BME280;63021;52.836;6.376;2023-05-16T10:46:06;102122.19;;;13.57;49.94
55456;BME280;63021;52.836;6.376;2023-05-16T10:48:40;102130.53;;;13.64;49.90
55456;BME280;63021;52.836;6.376;2023-05-16T10:51:33;102130.69;;;13.62;49.00
55456;BME280;63021;52.836;6.376;2023-05-16T10:54:04;102122.19;;;13.57;48.21
55456;BME280;63021;52.836;6.376;2023-05-16T10:56:32;102130.22;;;13.57;48.28
55456;BME280;63021;52.836;6.376;2023-05-16T10:58:59;102132.63;;;13.60;48.42
55456;BME280;63021;52.836;6.376;2023-05-16T11:01:28;102142.63;;;13.58;48.63
55456;BME280;63021;52.836;6.376;2023-05-16T11:14:20;102152.22;;;13.09;50.01
55456;BME280;63021;52.836;6.376;2023-05-16T11:16:49;102149.28;;;13.12;49.86
55456;BME280;63021;52.836;6.376;2023-05-16T11:22:08;102129.91;;;13.41;50.34
55456;BME280;63021;52.836;6.376;2023-05-16T11:24:35;102115.69;;;13.50;50.60
55456;BME280;63021;52.836;6.376;2023-05-16T11:27:02;102122.78;;;13.61;50.59
55456;BME280;63021;52.836;6.376;2023-05-16T11:29:31;102127.31;;;13.70;51.23
55456;BME280;63021;52.836;6.376;2023-05-16T11:32:01;102128.19;;;13.80;51.25
55456;BME280;63021;52.836;6.376;2023-05-16T11:34:29;102124.13;;;13.86;50.96
55456;BME280;63021;52.836;6.376;2023-05-16T11:36:54;102124.13;;;13.86;49.58
55456;BME280;63021;52.836;6.376;2023-05-16T11:39:21;102132.28;;;13.84;48.99
55456;BME280;63021;52.836;6.376;2023-05-16T11:41:49;102133.69;;;13.79;49.49
55456;BME280;63021;52.836;6.376;2023-05-16T11:44:14;102141.28;;;13.74;49.31
55456;BME280;63021;52.836;6.376;2023-05-16T11:46:41;102146.19;;;13.68;49.53
55456;BME280;63021;52.836;6.376;2023-05-16T11:49:08;102159.66;;;13.57;49.17
55456;BME280;63021;52.836;6.376;2023-05-16T11:51:39;102173.66;;;13.40;50.63
55456;BME280;63021;52.836;6.376;2023-05-16T11:54:05;102183.63;;;13.16;51.58
55456;BME280;63021;52.836;6.376;2023-05-16T11:56:33;102172.88;;;13.07;53.27
55456;BME280;63021;52.836;6.376;2023-05-16T11:58:59;102172.16;;;13.05;53.99
55456;BME280;63021;52.836;6.376;2023-05-16T12:01:32;102165.25;;;13.02;54.20
55456;BME280;63021;52.836;6.376;2023-05-16T12:03:58;102167.66;;;13.05;54.73
55456;BME280;63021;52.836;6.376;2023-05-16T12:06:23;102167.13;;;13.11;54.11
55456;BME280;63021;52.836;6.376;2023-05-16T12:08:49;102159.56;;;13.16;54.43
55456;BME280;63021;52.836;6.376;2023-05-16T12:11:16;102175.41;;;13.29;54.25
55456;BME280;63021;52.836;6.376;2023-05-16T12:13:42;102167.13;;;13.32;53.91
55456;BME280;63021;52.836;6.376;2023-05-16T12:16:08;102172.34;;;13.34;53.86
55456;BME280;63021;52.836;6.376;2023-05-16T12:18:35;102164.84;;;13.28;53.58
55456;BME280;63021;52.836;6.376;2023-05-16T12:21:06;102168.75;;;13.24;53.38
55456;BME280;63021;52.836;6.376;2023-05-16T12:23:32;102164.59;;;13.31;53.03
55456;BME280;63021;52.836;6.376;2023-05-16T12:25:58;102152.88;;;13.43;54.18
55456;BME280;63021;52.836;6.376;2023-05-16T12:28:30;102155.03;;;13.59;53.62
55456;BME280;63021;52.836;6.376;2023-05-16T12:30:58;102151.69;;;13.67;53.39
55456;BME280;63021;52.836;6.376;2023-05-16T12:33:23;102150.56;;;13.69;53.57
55456;BME280;63021;52.836;6.376;2023-05-16T12:35:49;102161.97;;;13.72;53.27
55456;BME280;63021;52.836;6.376;2023-05-16T12:38:18;102161.13;;;13.71;53.55
55456;BME280;63021;52.836;6.376;2023-05-16T12:40:45;102168.00;;;13.64;52.39
55456;BME280;63021;52.836;6.376;2023-05-16T12:45:48;102157.72;;;13.59;52.64
55456;BME280;63021;52.836;6.376;2023-05-16T12:48:14;102145.88;;;13.62;52.21
55456;BME280;63021;52.836;6.376;2023-05-16T12:50:40;102156.56;;;13.62;51.42
55456;BME280;63021;52.836;6.376;2023-05-16T12:53:11;102146.75;;;13.62;51.03
55456;BME280;63021;52.836;6.376;2023-05-16T12:55:37;102157.50;;;13.82;50.79
55456;BME280;63021;52.836;6.376;2023-05-16T12:58:02;102167.81;;;13.96;50.16
55456;BME280;63021;52.836;6.376;2023-05-16T13:00:28;102162.63;;;14.04;50.21
55456;BME280;63021;52.836;6.376;2023-05-16T13:02:53;102164.34;;;14.06;49.63
55456;BME280;63021;52.836;6.376;2023-05-16T13:05:19;102170.97;;;14.11;49.43
55456;BME280;63021;52.836;6.376;2023-05-16T13:07:48;102170.53;;;14.06;49.03
55456;BME280;63021;52.836;6.376;2023-05-16T13:10:16;102166.56;;;14.00;48.55
55456;BME280;63021;52.836;6.376;2023-05-16T13:12:41;102162.59;;;13.95;48.62
55456;BME280;63021;52.836;6.376;2023-05-16T13:15:09;102158.53;;;13.91;48.66